sensor_id;sensor_type;location;lat;lon;timestamp;noise_LAeq;noise_LA_min;noise_LA_max;noise_LA01;noise_LA95
43938;Laerm;71382;47.750;10.226;2024-01-10T00:01:07;31.67;29.88;40.69;;
43938;Laerm;71382;47.750;10.226;2024-01-10T00:03:33;30.60;29.74;36.92;;
43938;Laerm;71382;47.750;10.226;2024-01-10T00:05:58;30.57;29.86;31.59;;
43938;Laerm;71382;47.750;10.226;2024-01-10T00:08:24;30.56;29.97;31.87;;
43938;Laerm;71382;47.750;10.226;2024-01-10T00:10:51;30.56;29.82;31.76;;
43938;Laerm;71382;47.750;10.226;2024-01-10T00:13:17;30.56;29.81;31.84;;
43938;Laerm;71382;47.750;10.226;2024-01-10T00:15:42;30.63;29.95;33.00;;
43938;Laerm;71382;47.750;10.226;2024-01-10T00:18:08;30.58;29.76;32.53;;
43938;Laerm;71382;47.750;10.226;2024-01-10T00:20:33;30.51;29.85;32.11;;
43938;Laerm;71382;47.750;10.226;2024-01-10T00:22:59;30.50;29.81;31.67;;
43938;Laerm;71382;47.750;10.226;2024-01-10T00:25:25;30.48;29.77;31.53;;
43938;Laerm;71382;47.750;10.226;2024-01-10T00:27:50;30.55;29.79;32.77;;
43938;Laerm;71382;47.750;10.226;2024-01-10T00:30:16;30.59;29.97;31.47;;
43938;Laerm;71382;47.750;10.226;2024-01-10T00:32:41;30.54;29.73;31.89;;
43938;Laerm;71382;47.750;10.226;2024-01-10T00:35:07;30.57;29.83;35.06;;
43938;Laerm;71382;47.750;10.226;2024-01-10T00:37:32;30.50;29.86;31.33;;
43938;Laerm;71382;47.750;10.226;2024-01-10T00:39:58;30.49;29.75;31.76;;
43938;Laerm;71382;47.750;10.226;2024-01-10T00:42:23;30.48;29.74;31.07;;
43938;Laerm;71382;47.750;10.226;2024-01-10T00:44:49;30.46;29.76;31.19;;
43938;Laerm;71382;47.750;10.226;2024-01-10T00:47:15;30.55;29.93;31.30;;
43938;Laerm;71382;47.750;10.226;2024-01-10T00:49:40;30.47;29.80;31.33;;
43938;Laerm;71382;47.750;10.226;2024-01-10T00:52:06;30.49;29.84;31.21;;
43938;Laerm;71382;47.750;10.226;2024-01-10T00:54:31;30.45;29.73;31.14;;
43938;Laerm;71382;47.750;10.226;2024-01-10T00:56:57;30.44;29.79;31.65;;
43938;Laerm;71382;47.750;10.226;2024-01-10T00:59:22;30.46;29.71;37.07;;
43938;Laerm;71382;47.750;10.226;2024-01-10T01:01:48;30.52;29.73;33.18;;
43938;Laerm;71382;47.750;10.226;2024-01-10T01:04:14;30.45;29.53;32.62;;
43938;Laerm;71382;47.750;10.226;2024-01-10T01:06:39;30.42;29.79;31.28;;
43938;Laerm;71382;47.750;10.226;2024-01-10T01:09:05;30.43;29.85;31.09;;
43938;Laerm;71382;47.750;10.226;2024-01-10T01:11:30;30.41;29.71;31.06;;
43938;Laerm;71382;47.750;10.226;2024-01-10T01:13:56;30.41;29.65;31.06;;
43938;Laerm;71382;47.750;10.226;2024-01-10T01:16:21;30.40;29.74;30.99;;
43938;Laerm;71382;47.750;10.226;2024-01-10T01:18:47;30.41;29.72;32.35;;
43938;Laerm;71382;47.750;10.226;2024-01-10T01:21:13;30.40;29.76;32.27;;
43938;Laerm;71382;47.750;10.226;2024-01-10T01:23:38;30.40;29.52;30.99;;
43938;Laerm;71382;47.750;10.226;2024-01-10T01:26:04;30.44;29.80;31.03;;
43938;Laerm;71382;47.750;10.226;2024-01-10T01:28:30;34.03;29.67;47.95;;
43938;Laerm;71382;47.750;10.226;2024-01-10T01:30:55;33.05;29.66;50.72;;
43938;Laerm;71382;47.750;10.226;2024-01-10T01:33:21;30.38;29.67;30.89;;
43938;Laerm;71382;47.750;10.226;2024-01-10T01:35:46;30.38;29.68;30.99;;
43938;Laerm;71382;47.750;10.226;2024-01-10T01:38:12;30.39;29.57;31.17;;
43938;Laerm;71382;47.750;10.226;2024-01-10T01:40:37;30.43;29.71;31.05;;
43938;Laerm;71382;47.750;10.226;2024-01-10T01:43:17;30.38;29.66;30.90;;
43938;Laerm;71382;47.750;10.226;2024-01-10T01:45:43;30.38;29.68;31.05;;
43938;Laerm;71382;47.750;10.226;2024-01-10T01:48:09;30.50;29.61;31.19;;
43938;Laerm;71382;47.750;10.226;2024-01-10T01:50:34;30.52;29.61;31.42;;
43938;Laerm;71382;47.750;10.226;2024-01-10T01:53:00;30.52;29.71;31.70;;
43938;Laerm;71382;47.750;10.226;2024-01-10T01:55:25;31.21;29.85;38.62;;
43938;Laerm;71382;47.750;10.226;2024-01-10T01:57:51;30.39;29.69;30.94;;
43938;Laerm;71382;47.750;10.226;2024-01-10T02:00:16;30.40;29.77;30.92;;
43938;Laerm;71382;47.750;10.226;2024-01-10T02:02:42;30.38;29.71;31.06;;
43938;Laerm;71382;47.750;10.226;2024-01-10T02:05:09;30.37;29.69;31.02;;
43938;Laerm;71382;47.750;10.226;2024-01-10T02:07:34;30.37;29.71;30.99;;
43938;Laerm;71382;47.750;10.226;2024-01-10T02:10:00;30.42;29.65;31.01;;
43938;Laerm;71382;47.750;10.226;2024-01-10T02:12:26;30.40;29.75;31.25;;
43938;Laerm;71382;47.750;10.226;2024-01-10T02:14:52;30.38;29.75;31.00;;
43938;Laerm;71382;47.750;10.226;2024-01-10T02:17:17;30.36;29.71;30.96;;
43938;Laerm;71382;47.750;10.226;2024-01-10T02:19:43;30.38;29.69;30.95;;
43938;Laerm;71382;47.750;10.226;2024-01-10T02:22:08;30.35;29.59;30.97;;
43938;Laerm;71382;47.750;10.226;2024-01-10T02:24:36;30.35;29.69;30.86;;
43938;Laerm;71382;47.750;10.226;2024-01-10T02:27:02;30.38;29.76;31.27;;
43938;Laerm;71382;47.750;10.226;2024-01-10T02:29:28;30.38;29.66;30.91;;
43938;Laerm;71382;47.750;10.226;2024-01-10T02:31:53;30.40;29.57;30.98;;
43938;Laerm;71382;47.750;10.226;2024-01-10T02:34:19;30.44;29.74;31.22;;
43938;Laerm;71382;47.750;10.226;2024-01-10T02:36:45;30.46;29.71;31.12;;
43938;Laerm;71382;47.750;10.226;2024-01-10T02:39:10;30.47;29.76;31.10;;
43938;Laerm;71382;47.750;10.226;2024-01-10T02:41:36;30.48;29.70;31.16;;
43938;Laerm;71382;47.750;10.226;2024-01-10T02:44:02;30.52;29.76;31.11;;
43938;Laerm;71382;47.750;10.226;2024-01-10T02:46:27;30.55;29.85;31.30;;
43938;Laerm;71382;47.750;10.226;2024-01-10T02:48:53;30.59;29.83;32.04;;
43938;Laerm;71382;47.750;10.226;2024-01-10T02:51:20;30.67;29.57;31.70;;
43938;Laerm;71382;47.750;10.226;2024-01-10T02:53:46;30.58;29.83;32.32;;
43938;Laerm;71382;47.750;10.226;2024-01-10T02:56:12;30.62;29.73;33.93;;
43938;Laerm;71382;47.750;10.226;2024-01-10T02:58:37;30.60;29.80;33.65;;
43938;Laerm;71382;47.750;10.226;2024-01-10T03:01:03;30.55;29.76;32.80;;
43938;Laerm;71382;47.750;10.226;2024-01-10T03:03:29;30.49;29.75;31.20;;
43938;Laerm;71382;47.750;10.226;2024-01-10T03:05:54;31.69;29.85;41.32;;
43938;Laerm;71382;47.750;10.226;2024-01-10T03:08:20;32.19;29.83;43.22;;
43938;Laerm;71382;47.750;10.226;2024-01-10T03:10:45;30.54;29.83;31.08;;
43938;Laerm;71382;47.750;10.226;2024-01-10T03:13:11;30.53;29.84;32.18;;
43938;Laerm;71382;47.750;10.226;2024-01-10T03:15:36;30.55;29.63;31.22;;
43938;Laerm;71382;47.750;10.226;2024-01-10T03:18:02;30.58;29.87;31.31;;
43938;Laerm;71382;47.750;10.226;2024-01-10T03:20:28;30.59;29.80;31.29;;
43938;Laerm;71382;47.750;10.226;2024-01-10T03:22:53;31.18;29.83;46.79;;
43938;Laerm;71382;47.750;10.226;2024-01-10T03:25:19;32.51;29.96;41.64;;
43938;Laerm;71382;47.750;10.226;2024-01-10T03:27:44;32.94;29.87;45.05;;
43938;Laerm;71382;47.750;10.226;2024-01-10T03:30:10;30.80;29.75;33.66;;
43938;Laerm;71382;47.750;10.226;2024-01-10T03:32:35;31.39;29.77;39.03;;
43938;Laerm;71382;47.750;10.226;2024-01-10T03:35:01;30.64;30.02;31.53;;
43938;Laerm;71382;47.750;10.226;2024-01-10T03:37:27;32.31;29.91;43.16;;
43938;Laerm;71382;47.750;10.226;2024-01-10T03:39:52;30.67;29.92;31.47;;
43938;Laerm;71382;47.750;10.226;2024-01-10T03:42:18;32.42;29.79;44.30;;
43938;Laerm;71382;47.750;10.226;2024-01-10T03:44:43;31.25;30.13;34.05;;
43938;Laerm;71382;47.750;10.226;2024-01-10T03:47:09;36.87;29.98;47.00;;
43938;Laerm;71382;47.750;10.226;2024-01-10T03:49:35;33.55;30.13;41.13;;
43938;Laerm;71382;47.750;10.226;2024-01-10T03:52:00;31.11;30.24;33.53;;
43938;Laerm;71382;47.750;10.226;2024-01-10T03:54:26;30.96;30.12;33.53;;
43938;Laerm;71382;47.750;10.226;2024-01-10T03:56:51;31.81;30.11;41.15;;
43938;Laerm;71382;47.750;10.226;2024-01-10T03:59:17;33.90;30.10;45.59;;
43938;Laerm;71382;47.750;10.226;2024-01-10T04:01:43;34.29;30.38;42.51;;
43938;Laerm;71382;47.750;10.226;2024-01-10T04:04:08;40.10;30.15;54.62;;
43938;Laerm;71382;47.750;10.226;2024-01-10T04:06:34;36.70;30.47;51.45;;
43938;Laerm;71382;47.750;10.226;2024-01-10T04:09:00;30.99;29.96;35.96;;
43938;Laerm;71382;47.750;10.226;2024-01-10T04:11:26;32.34;30.10;40.28;;
43938;Laerm;71382;47.750;10.226;2024-01-10T04:13:51;34.87;30.31;45.21;;
43938;Laerm;71382;47.750;10.226;2024-01-10T04:16:17;35.22;30.41;44.69;;
43938;Laerm;71382;47.750;10.226;2024-01-10T04:18:43;33.41;30.13;42.30;;
43938;Laerm;71382;47.750;10.226;2024-01-10T04:21:08;35.44;30.20;53.46;;
43938;Laerm;71382;47.750;10.226;2024-01-10T04:23:34;33.47;30.02;46.20;;
43938;Laerm;71382;47.750;10.226;2024-01-10T04:26:01;33.51;29.79;46.16;;
43938;Laerm;71382;47.750;10.226;2024-01-10T04:28:27;38.01;30.13;52.34;;
43938;Laerm;71382;47.750;10.226;2024-01-10T04:30:52;31.82;30.21;40.16;;
43938;Laerm;71382;47.750;10.226;2024-01-10T04:33:18;39.04;30.16;52.39;;
43938;Laerm;71382;47.750;10.226;2024-01-10T04:35:43;32.99;30.00;43.62;;
43938;Laerm;71382;47.750;10.226;2024-01-10T04:38:09;34.79;30.17;44.77;;
43938;Laerm;71382;47.750;10.226;2024-01-10T04:40:35;35.02;30.24;46.59;;
43938;Laerm;71382;47.750;10.226;2024-01-10T04:43:00;33.29;30.20;42.01;;
43938;Laerm;71382;47.750;10.226;2024-01-10T04:45:26;36.28;30.34;48.48;;
43938;Laerm;71382;47.750;10.226;2024-01-10T04:47:51;36.57;30.18;49.50;;
43938;Laerm;71382;47.750;10.226;2024-01-10T04:50:17;33.02;30.36;43.60;;
43938;Laerm;71382;47.750;10.226;2024-01-10T04:52:42;34.83;30.62;42.41;;
43938;Laerm;71382;47.750;10.226;2024-01-10T04:55:08;35.79;30.71;45.94;;
43938;Laerm;71382;47.750;10.226;2024-01-10T04:57:33;34.27;30.66;45.04;;
43938;Laerm;71382;47.750;10.226;2024-01-10T04:59:59;41.32;30.76;56.81;;
43938;Laerm;71382;47.750;10.226;2024-01-10T05:02:24;37.53;31.33;46.34;;
43938;Laerm;71382;47.750;10.226;2024-01-10T05:04:50;38.42;32.58;47.13;;
43938;Laerm;71382;47.750;10.226;2024-01-10T05:07:16;39.50;31.92;51.31;;
43938;Laerm;71382;47.750;10.226;2024-01-10T05:09:41;37.66;32.08;47.66;;
43938;Laerm;71382;47.750;10.226;2024-01-10T05:12:07;37.41;32.04;46.01;;
43938;Laerm;71382;47.750;10.226;2024-01-10T05:14:32;37.26;32.14;46.42;;
43938;Laerm;71382;47.750;10.226;2024-01-10T05:16:58;41.22;32.70;53.84;;
43938;Laerm;71382;47.750;10.226;2024-01-10T05:19:24;40.31;32.25;53.55;;
43938;Laerm;71382;47.750;10.226;2024-01-10T05:21:49;36.86;32.00;47.26;;
43938;Laerm;71382;47.750;10.226;2024-01-10T05:24:15;38.09;31.91;56.91;;
43938;Laerm;71382;47.750;10.226;2024-01-10T05:26:40;39.62;32.07;59.85;;
43938;Laerm;71382;47.750;10.226;2024-01-10T05:29:06;37.92;32.74;51.77;;
43938;Laerm;71382;47.750;10.226;2024-01-10T05:31:33;38.27;32.66;47.02;;
43938;Laerm;71382;47.750;10.226;2024-01-10T05:33:58;37.28;32.41;45.79;;
43938;Laerm;71382;47.750;10.226;2024-01-10T05:36:24;36.21;32.09;43.13;;
43938;Laerm;71382;47.750;10.226;2024-01-10T05:38:49;37.86;32.47;46.04;;
43938;Laerm;71382;47.750;10.226;2024-01-10T05:41:15;38.64;33.12;47.94;;
43938;Laerm;71382;47.750;10.226;2024-01-10T05:43:41;39.18;33.20;47.02;;
43938;Laerm;71382;47.750;10.226;2024-01-10T05:46:06;37.65;32.23;46.35;;
43938;Laerm;71382;47.750;10.226;2024-01-10T05:48:32;38.20;32.56;46.32;;
43938;Laerm;71382;47.750;10.226;2024-01-10T05:50:57;39.33;33.20;47.37;;
43938;Laerm;71382;47.750;10.226;2024-01-10T05:53:23;39.32;33.50;53.23;;
43938;Laerm;71382;47.750;10.226;2024-01-10T05:55:50;39.65;33.60;50.52;;
43938;Laerm;71382;47.750;10.226;2024-01-10T05:58:16;40.19;33.47;48.77;;
43938;Laerm;71382;47.750;10.226;2024-01-10T06:00:42;40.23;33.10;50.83;;
43938;Laerm;71382;47.750;10.226;2024-01-10T06:03:07;40.62;35.27;45.63;;
43938;Laerm;71382;47.750;10.226;2024-01-10T06:05:33;42.83;36.10;51.94;;
43938;Laerm;71382;47.750;10.226;2024-01-10T06:07:59;43.53;35.16;55.13;;
43938;Laerm;71382;47.750;10.226;2024-01-10T06:10:24;42.09;35.04;48.38;;
43938;Laerm;71382;47.750;10.226;2024-01-10T06:12:50;42.39;35.56;51.97;;
43938;Laerm;71382;47.750;10.226;2024-01-10T06:15:15;41.72;36.11;52.29;;
43938;Laerm;71382;47.750;10.226;2024-01-10T06:17:41;41.17;35.00;46.62;;
43938;Laerm;71382;47.750;10.226;2024-01-10T06:20:07;39.58;34.45;46.16;;
43938;Laerm;71382;47.750;10.226;2024-01-10T06:22:33;39.38;34.48;44.98;;
43938;Laerm;71382;47.750;10.226;2024-01-10T06:24:58;40.31;34.03;47.57;;
43938;Laerm;71382;47.750;10.226;2024-01-10T06:27:24;39.82;33.97;52.60;;
43938;Laerm;71382;47.750;10.226;2024-01-10T06:29:49;39.45;33.87;47.81;;
43938;Laerm;71382;47.750;10.226;2024-01-10T06:32:15;40.29;34.33;46.40;;
43938;Laerm;71382;47.750;10.226;2024-01-10T06:34:41;40.61;34.32;48.23;;
43938;Laerm;71382;47.750;10.226;2024-01-10T06:37:06;41.74;34.30;52.81;;
43938;Laerm;71382;47.750;10.226;2024-01-10T06:39:33;38.53;33.44;46.76;;
43938;Laerm;71382;47.750;10.226;2024-01-10T06:41:58;38.63;33.57;46.57;;
43938;Laerm;71382;47.750;10.226;2024-01-10T06:44:24;39.12;33.69;45.50;;
43938;Laerm;71382;47.750;10.226;2024-01-10T06:46:50;43.47;33.43;56.71;;
43938;Laerm;71382;47.750;10.226;2024-01-10T06:49:16;38.79;34.24;44.31;;
43938;Laerm;71382;47.750;10.226;2024-01-10T06:51:41;38.52;34.23;45.90;;
43938;Laerm;71382;47.750;10.226;2024-01-10T06:54:07;37.03;33.33;43.17;;
43938;Laerm;71382;47.750;10.226;2024-01-10T06:56:34;38.95;32.90;45.26;;
43938;Laerm;71382;47.750;10.226;2024-01-10T06:59:00;37.30;32.54;43.92;;
43938;Laerm;71382;47.750;10.226;2024-01-10T07:01:26;37.08;32.31;45.69;;
43938;Laerm;71382;47.750;10.226;2024-01-10T07:03:52;36.64;32.64;47.05;;
43938;Laerm;71382;47.750;10.226;2024-01-10T07:06:17;45.19;32.93;58.52;;
43938;Laerm;71382;47.750;10.226;2024-01-10T07:08:43;39.32;33.93;49.04;;
43938;Laerm;71382;47.750;10.226;2024-01-10T07:11:10;38.50;33.57;48.62;;
43938;Laerm;71382;47.750;10.226;2024-01-10T07:13:36;37.89;32.73;47.08;;
43938;Laerm;71382;47.750;10.226;2024-01-10T07:16:02;40.86;32.94;52.78;;
43938;Laerm;71382;47.750;10.226;2024-01-10T07:18:28;39.41;33.56;52.91;;
43938;Laerm;71382;47.750;10.226;2024-01-10T07:20:54;38.06;32.16;44.88;;
43938;Laerm;71382;47.750;10.226;2024-01-10T07:23:20;45.71;33.60;73.70;;
43938;Laerm;71382;47.750;10.226;2024-01-10T07:25:45;39.00;34.03;48.17;;
43938;Laerm;71382;47.750;10.226;2024-01-10T07:28:11;40.18;33.60;50.38;;
43938;Laerm;71382;47.750;10.226;2024-01-10T07:30:36;39.05;33.88;49.64;;
43938;Laerm;71382;47.750;10.226;2024-01-10T07:33:02;37.76;34.17;45.78;;
43938;Laerm;71382;47.750;10.226;2024-01-10T07:35:27;45.90;33.90;58.22;;
43938;Laerm;71382;47.750;10.226;2024-01-10T07:37:54;42.12;33.73;52.53;;
43938;Laerm;71382;47.750;10.226;2024-01-10T07:40:20;37.44;33.56;45.42;;
43938;Laerm;71382;47.750;10.226;2024-01-10T07:42:46;39.57;34.18;48.40;;
43938;Laerm;71382;47.750;10.226;2024-01-10T07:45:11;37.05;33.75;46.84;;
43938;Laerm;71382;47.750;10.226;2024-01-10T07:47:37;38.50;33.17;52.98;;
43938;Laerm;71382;47.750;10.226;2024-01-10T07:50:06;38.36;33.13;47.97;;
43938;Laerm;71382;47.750;10.226;2024-01-10T07:52:32;43.63;33.77;52.96;;
43938;Laerm;71382;47.750;10.226;2024-01-10T07:54:58;47.83;36.58;57.86;;
43938;Laerm;71382;47.750;10.226;2024-01-10T07:57:24;40.95;35.03;50.26;;
43938;Laerm;71382;47.750;10.226;2024-01-10T07:59:50;44.88;33.70;52.11;;
43938;Laerm;71382;47.750;10.226;2024-01-10T08:02:15;38.51;34.53;45.68;;
43938;Laerm;71382;47.750;10.226;2024-01-10T08:04:42;37.89;32.99;44.06;;
43938;Laerm;71382;47.750;10.226;2024-01-10T08:07:07;38.71;33.56;56.61;;
43938;Laerm;71382;47.750;10.226;2024-01-10T08:09:33;36.74;33.43;44.65;;
43938;Laerm;71382;47.750;10.226;2024-01-10T08:11:59;39.57;34.65;47.48;;
43938;Laerm;71382;47.750;10.226;2024-01-10T08:14:24;39.77;34.32;48.31;;
43938;Laerm;71382;47.750;10.226;2024-01-10T08:16:50;37.37;33.74;45.43;;
43938;Laerm;71382;47.750;10.226;2024-01-10T08:19:18;40.60;33.52;49.66;;
43938;Laerm;71382;47.750;10.226;2024-01-10T08:21:44;42.80;32.91;57.25;;
43938;Laerm;71382;47.750;10.226;2024-01-10T08:24:09;39.96;33.08;58.36;;
43938;Laerm;71382;47.750;10.226;2024-01-10T08:26:35;38.51;33.30;53.93;;
43938;Laerm;71382;47.750;10.226;2024-01-10T08:29:00;37.55;32.85;49.97;;
43938;Laerm;71382;47.750;10.226;2024-01-10T08:31:26;39.44;32.91;53.01;;
43938;Laerm;71382;47.750;10.226;2024-01-10T08:33:52;37.87;32.98;49.75;;
43938;Laerm;71382;47.750;10.226;2024-01-10T08:36:18;39.45;32.84;47.60;;
43938;Laerm;71382;47.750;10.226;2024-01-10T08:38:44;40.87;36.61;54.20;;
43938;Laerm;71382;47.750;10.226;2024-01-10T08:41:09;43.18;36.75;56.31;;
43938;Laerm;71382;47.750;10.226;2024-01-10T08:43:37;44.56;40.03;55.30;;
43938;Laerm;71382;47.750;10.226;2024-01-10T08:46:03;44.84;40.42;60.42;;
43938;Laerm;71382;47.750;10.226;2024-01-10T08:48:29;43.19;40.46;50.40;;
43938;Laerm;71382;47.750;10.226;2024-01-10T08:50:55;46.66;38.26;62.14;;
43938;Laerm;71382;47.750;10.226;2024-01-10T08:53:21;52.09;37.85;58.87;;
43938;Laerm;71382;47.750;10.226;2024-01-10T08:55:47;52.87;33.81;60.26;;
43938;Laerm;71382;47.750;10.226;2024-01-10T08:58:13;47.41;32.91;59.56;;
43938;Laerm;71382;47.750;10.226;2024-01-10T09:00:39;47.09;33.55;65.32;;
43938;Laerm;71382;47.750;10.226;2024-01-10T09:03:04;44.63;35.91;59.86;;
43938;Laerm;71382;47.750;10.226;2024-01-10T09:05:30;42.67;34.72;53.32;;
43938;Laerm;71382;47.750;10.226;2024-01-10T09:07:56;41.89;34.66;51.31;;
43938;Laerm;71382;47.750;10.226;2024-01-10T09:10:22;46.78;42.60;65.04;;
43938;Laerm;71382;47.750;10.226;2024-01-10T09:12:48;44.88;42.17;49.52;;
43938;Laerm;71382;47.750;10.226;2024-01-10T09:15:14;45.27;42.42;52.14;;
43938;Laerm;71382;47.750;10.226;2024-01-10T09:17:42;45.68;41.98;56.13;;
43938;Laerm;71382;47.750;10.226;2024-01-10T09:20:08;44.45;42.19;49.69;;
43938;Laerm;71382;47.750;10.226;2024-01-10T09:22:34;43.98;41.48;48.29;;
43938;Laerm;71382;47.750;10.226;2024-01-10T09:25:00;44.21;41.93;47.43;;
43938;Laerm;71382;47.750;10.226;2024-01-10T09:27:32;44.32;41.91;51.46;;
43938;Laerm;71382;47.750;10.226;2024-01-10T09:29:59;45.75;42.37;54.43;;
43938;Laerm;71382;47.750;10.226;2024-01-10T09:32:25;45.40;41.36;52.22;;
43938;Laerm;71382;47.750;10.226;2024-01-10T09:34:51;43.71;41.30;48.18;;
43938;Laerm;71382;47.750;10.226;2024-01-10T09:37:16;38.76;32.81;49.31;;
43938;Laerm;71382;47.750;10.226;2024-01-10T09:39:42;36.39;33.13;45.97;;
43938;Laerm;71382;47.750;10.226;2024-01-10T09:42:08;52.45;32.81;56.99;;
43938;Laerm;71382;47.750;10.226;2024-01-10T09:44:34;52.25;39.75;56.64;;
43938;Laerm;71382;47.750;10.226;2024-01-10T09:46:59;54.31;50.97;55.62;;
43938;Laerm;71382;47.750;10.226;2024-01-10T09:49:26;56.01;53.84;59.11;;
43938;Laerm;71382;47.750;10.226;2024-01-10T09:51:53;56.15;55.13;57.73;;
43938;Laerm;71382;47.750;10.226;2024-01-10T09:54:23;55.91;54.40;56.78;;
43938;Laerm;71382;47.750;10.226;2024-01-10T09:56:49;54.06;51.48;56.64;;
43938;Laerm;71382;47.750;10.226;2024-01-10T09:59:15;56.17;54.91;66.86;;
43938;Laerm;71382;47.750;10.226;2024-01-10T10:01:41;56.34;55.64;59.79;;
43938;Laerm;71382;47.750;10.226;2024-01-10T10:04:09;56.08;54.98;58.58;;
43938;Laerm;71382;47.750;10.226;2024-01-10T10:06:36;56.10;54.00;56.95;;
43938;Laerm;71382;47.750;10.226;2024-01-10T10:09:02;56.08;54.60;57.02;;
43938;Laerm;71382;47.750;10.226;2024-01-10T10:11:28;56.19;55.46;57.39;;
43938;Laerm;71382;47.750;10.226;2024-01-10T10:13:53;55.71;43.51;62.86;;
43938;Laerm;71382;47.750;10.226;2024-01-10T10:16:22;52.94;37.59;59.16;;
43938;Laerm;71382;47.750;10.226;2024-01-10T10:18:49;54.87;37.99;57.54;;
43938;Laerm;71382;47.750;10.226;2024-01-10T10:21:15;55.99;55.35;56.99;;
43938;Laerm;71382;47.750;10.226;2024-01-10T10:23:42;56.11;55.42;56.78;;
43938;Laerm;71382;47.750;10.226;2024-01-10T10:28:39;56.23;55.46;57.57;;
43938;Laerm;71382;47.750;10.226;2024-01-10T10:31:05;48.60;37.68;56.78;;
43938;Laerm;71382;47.750;10.226;2024-01-10T10:33:32;40.38;37.38;45.87;;
43938;Laerm;71382;47.750;10.226;2024-01-10T10:35:58;40.10;37.15;50.89;;
43938;Laerm;71382;47.750;10.226;2024-01-10T10:38:23;42.79;38.07;61.56;;
43938;Laerm;71382;47.750;10.226;2024-01-10T10:40:49;46.93;38.20;57.68;;
43938;Laerm;71382;47.750;10.226;2024-01-10T10:43:15;43.13;37.72;67.26;;
43938;Laerm;71382;47.750;10.226;2024-01-10T10:45:47;40.35;33.07;55.34;;
43938;Laerm;71382;47.750;10.226;2024-01-10T10:48:15;47.30;34.26;64.85;;
43938;Laerm;71382;47.750;10.226;2024-01-10T10:50:41;41.51;32.45;54.55;;
43938;Laerm;71382;47.750;10.226;2024-01-10T10:53:11;51.57;16.52;62.70;;
43938;Laerm;71382;47.750;10.226;2024-01-10T10:55:37;52.77;51.81;57.53;;
43938;Laerm;71382;47.750;10.226;2024-01-10T10:58:04;54.16;51.86;58.38;;
43938;Laerm;71382;47.750;10.226;2024-01-10T11:00:30;53.72;51.74;65.73;;
43938;Laerm;71382;47.750;10.226;2024-01-10T11:02:56;54.73;52.41;60.54;;
43938;Laerm;71382;47.750;10.226;2024-01-10T11:05:25;54.64;53.62;56.69;;
43938;Laerm;71382;47.750;10.226;2024-01-10T11:07:51;53.10;52.00;56.57;;
43938;Laerm;71382;47.750;10.226;2024-01-10T11:10:27;53.03;51.83;56.42;;
43938;Laerm;71382;47.750;10.226;2024-01-10T11:20:53;5.00;5.00;5.00;;
43938;Laerm;71382;47.750;10.226;2024-01-10T11:25:59;5.00;5.00;5.00;;
43938;Laerm;71382;47.750;10.226;2024-01-10T11:28:25;5.00;5.00;5.00;;
43938;Laerm;71382;47.750;10.226;2024-01-10T11:30:51;5.00;5.00;5.00;;
43938;Laerm;71382;47.750;10.226;2024-01-10T11:36:05;5.00;5.00;5.00;;
43938;Laerm;71382;47.750;10.226;2024-01-10T11:38:29;92.69;-137.47;105.59;;
43938;Laerm;71382;47.750;10.226;2024-01-10T11:40:56;83.22;-324.82;99.03;;
43938;Laerm;71382;47.750;10.226;2024-01-10T11:43:22;5.00;5.00;5.00;;
43938;Laerm;71382;47.750;10.226;2024-01-10T11:45:51;5.00;5.00;5.00;;
43938;Laerm;71382;47.750;10.226;2024-01-10T11:48:25;5.00;5.00;5.00;;
43938;Laerm;71382;47.750;10.226;2024-01-10T11:50:52;5.00;5.00;5.00;;
43938;Laerm;71382;47.750;10.226;2024-01-10T11:56:08;5.00;5.00;5.00;;
43938;Laerm;71382;47.750;10.226;2024-01-10T11:58:51;5.00;5.00;5.00;;
43938;Laerm;71382;47.750;10.226;2024-01-10T12:01:17;5.00;5.00;5.00;;
43938;Laerm;71382;47.750;10.226;2024-01-10T12:03:43;5.00;5.00;5.00;;
43938;Laerm;71382;47.750;10.226;2024-01-10T12:06:09;5.00;5.00;5.00;;
43938;Laerm;71382;47.750;10.226;2024-01-10T12:08:35;5.00;5.00;5.00;;
43938;Laerm;71382;47.750;10.226;2024-01-10T12:11:01;5.00;5.00;5.00;;
43938;Laerm;71382;47.750;10.226;2024-01-10T12:13:26;39.64;-326.86;67.33;;
43938;Laerm;71382;47.750;10.226;2024-01-10T12:15:52;5.00;5.00;5.00;;
43938;Laerm;71382;47.750;10.226;2024-01-10T12:18:18;5.00;5.00;5.00;;
43938;Laerm;71382;47.750;10.226;2024-01-10T12:20:44;5.00;5.00;5.00;;
43938;Laerm;71382;47.750;10.226;2024-01-10T12:23:10;21.03;-339.87;51.61;;
43938;Laerm;71382;47.750;10.226;2024-01-10T12:25:36;39.35;-328.41;69.40;;
43938;Laerm;71382;47.750;10.226;2024-01-10T12:28:02;36.73;-335.10;67.36;;
43938;Laerm;71382;47.750;10.226;2024-01-10T12:30:28;105.10;-254.45;113.76;;
43938;Laerm;71382;47.750;10.226;2024-01-10T12:32:54;108.62;44.18;112.81;;
43938;Laerm;71382;47.750;10.226;2024-01-10T12:35:19;108.41;96.48;113.59;;
43938;Laerm;71382;47.750;10.226;2024-01-10T12:37:56;107.98;93.06;111.56;;
43938;Laerm;71382;47.750;10.226;2024-01-10T12:40:22;106.85;90.88;112.04;;
43938;Laerm;71382;47.750;10.226;2024-01-10T12:42:47;106.95;99.77;111.94;;
43938;Laerm;71382;47.750;10.226;2024-01-10T12:45:20;108.02;49.66;112.07;;
43938;Laerm;71382;47.750;10.226;2024-01-10T12:47:45;104.78;96.65;110.06;;
43938;Laerm;71382;47.750;10.226;2024-01-10T12:50:12;95.57;-324.96;103.85;;
43938;Laerm;71382;47.750;10.226;2024-01-10T12:52:37;5.00;5.00;5.00;;
43938;Laerm;71382;47.750;10.226;2024-01-10T12:55:05;39.07;5.00;54.38;;
43938;Laerm;71382;47.750;10.226;2024-01-10T12:57:30;38.99;32.86;50.15;;
43938;Laerm;71382;47.750;10.226;2024-01-10T12:59:56;46.43;33.09;58.27;;
43938;Laerm;71382;47.750;10.226;2024-01-10T13:02:22;37.98;31.76;48.26;;
43938;Laerm;71382;47.750;10.226;2024-01-10T13:04:47;38.17;31.97;46.78;;
43938;Laerm;71382;47.750;10.226;2024-01-10T13:07:13;35.24;31.01;49.86;;
43938;Laerm;71382;47.750;10.226;2024-01-10T13:09:38;39.51;31.74;52.23;;
43938;Laerm;71382;47.750;10.226;2024-01-10T13:12:07;38.67;31.98;47.17;;
43938;Laerm;71382;47.750;10.226;2024-01-10T13:14:33;38.99;31.84;49.68;;
43938;Laerm;71382;47.750;10.226;2024-01-10T13:16:59;43.83;33.28;59.70;;
43938;Laerm;71382;47.750;10.226;2024-01-10T13:19:25;39.71;32.55;57.15;;
43938;Laerm;71382;47.750;10.226;2024-01-10T13:21:51;42.20;32.95;52.13;;
43938;Laerm;71382;47.750;10.226;2024-01-10T13:24:18;39.01;33.61;50.65;;
43938;Laerm;71382;47.750;10.226;2024-01-10T13:26:44;40.14;33.34;54.64;;
43938;Laerm;71382;47.750;10.226;2024-01-10T13:29:10;39.79;33.28;51.17;;
43938;Laerm;71382;47.750;10.226;2024-01-10T13:31:35;39.82;33.13;49.60;;
43938;Laerm;71382;47.750;10.226;2024-01-10T13:34:02;42.99;33.62;54.10;;
43938;Laerm;71382;47.750;10.226;2024-01-10T13:36:29;53.60;23.56;71.34;;
43938;Laerm;71382;47.750;10.226;2024-01-10T13:38:55;56.25;17.12;65.13;;
43938;Laerm;71382;47.750;10.226;2024-01-10T13:41:21;59.34;43.90;67.63;;
43938;Laerm;71382;47.750;10.226;2024-01-10T13:43:47;55.88;22.22;62.19;;
43938;Laerm;71382;47.750;10.226;2024-01-10T13:46:12;55.82;21.01;65.84;;